sensor_id;sensor_type;location;lat;lon;timestamp;P1;durP1;ratioP1;P2;durP2;ratioP2
45490;SDS011;31237;45.586;13.782;2023-02-15T00:01:11;0.93;;;0.93;;
45490;SDS011;31237;45.586;13.782;2023-02-15T00:03:37;0.60;;;0.60;;
45490;SDS011;31237;45.586;13.782;2023-02-15T00:06:03;0.30;;;0.30;;
45490;SDS011;31237;45.586;13.782;2023-02-15T00:08:30;0.50;;;0.50;;
45490;SDS011;31237;45.586;13.782;2023-02-15T00:13:41;0.40;;;0.40;;
45490;SDS011;31237;45.586;13.782;2023-02-15T00:16:11;4.68;;;1.05;;
45490;SDS011;31237;45.586;13.782;2023-02-15T00:18:39;0.32;;;0.32;;
45490;SDS011;31237;45.586;13.782;2023-02-15T00:21:06;0.55;;;0.55;;
45490;SDS011;31237;45.586;13.782;2023-02-15T00:23:34;0.50;;;0.50;;
45490;SDS011;31237;45.586;13.782;2023-02-15T00:26:07;0.80;;;0.80;;
45490;SDS011;31237;45.586;13.782;2023-02-15T00:28:37;0.40;;;0.40;;
45490;SDS011;31237;45.586;13.782;2023-02-15T00:31:07;0.77;;;0.77;;
45490;SDS011;31237;45.586;13.782;2023-02-15T00:33:35;0.50;;;0.50;;
45490;SDS011;31237;45.586;13.782;2023-02-15T00:36:01;0.82;;;0.82;;
45490;SDS011;31237;45.586;13.782;2023-02-15T00:38:28;0.60;;;0.60;;
45490;SDS011;31237;45.586;13.782;2023-02-15T00:40:55;0.75;;;0.75;;
45490;SDS011;31237;45.586;13.782;2023-02-15T00:43:22;0.40;;;0.40;;
45490;SDS011;31237;45.586;13.782;2023-02-15T00:45:48;0.95;;;0.82;;
45490;SDS011;31237;45.586;13.782;2023-02-15T00:48:14;0.40;;;0.40;;
45490;SDS011;31237;45.586;13.782;2023-02-15T00:50:39;0.45;;;0.45;;
45490;SDS011;31237;45.586;13.782;2023-02-15T00:53:05;0.50;;;0.50;;
45490;SDS011;31237;45.586;13.782;2023-02-15T00:55:31;1.17;;;0.82;;
45490;SDS011;31237;45.586;13.782;2023-02-15T00:57:56;0.35;;;0.35;;
45490;SDS011;31237;45.586;13.782;2023-02-15T01:00:22;1.02;;;0.98;;
45490;SDS011;31237;45.586;13.782;2023-02-15T01:02:48;0.50;;;0.50;;
45490;SDS011;31237;45.586;13.782;2023-02-15T01:05:14;0.63;;;0.63;;
45490;SDS011;31237;45.586;13.782;2023-02-15T01:07:43;1.15;;;1.08;;
45490;SDS011;31237;45.586;13.782;2023-02-15T01:10:09;0.85;;;0.85;;
45490;SDS011;31237;45.586;13.782;2023-02-15T01:12:35;0.47;;;0.47;;
45490;SDS011;31237;45.586;13.782;2023-02-15T01:15:00;0.73;;;0.73;;
45490;SDS011;31237;45.586;13.782;2023-02-15T01:17:26;1.05;;;0.98;;
45490;SDS011;31237;45.586;13.782;2023-02-15T01:19:52;0.60;;;0.60;;
45490;SDS011;31237;45.586;13.782;2023-02-15T01:22:18;0.65;;;0.65;;
45490;SDS011;31237;45.586;13.782;2023-02-15T01:24:44;0.88;;;0.88;;
45490;SDS011;31237;45.586;13.782;2023-02-15T01:27:10;1.35;;;1.25;;
45490;SDS011;31237;45.586;13.782;2023-02-15T01:29:35;0.40;;;0.40;;
45490;SDS011;31237;45.586;13.782;2023-02-15T01:32:01;1.38;;;1.08;;
45490;SDS011;31237;45.586;13.782;2023-02-15T01:34:28;1.90;;;1.23;;
45490;SDS011;31237;45.586;13.782;2023-02-15T01:36:54;0.40;;;0.40;;
45490;SDS011;31237;45.586;13.782;2023-02-15T01:39:20;0.40;;;0.40;;
45490;SDS011;31237;45.586;13.782;2023-02-15T01:41:46;0.50;;;0.50;;
45490;SDS011;31237;45.586;13.782;2023-02-15T01:47:13;0.63;;;0.63;;
45490;SDS011;31237;45.586;13.782;2023-02-15T01:50:02;0.55;;;0.55;;
45490;SDS011;31237;45.586;13.782;2023-02-15T01:52:39;0.68;;;0.68;;
45490;SDS011;31237;45.586;13.782;2023-02-15T01:55:09;0.65;;;0.65;;
45490;SDS011;31237;45.586;13.782;2023-02-15T01:57:37;1.35;;;1.25;;
45490;SDS011;31237;45.586;13.782;2023-02-15T02:00:04;0.40;;;0.40;;
45490;SDS011;31237;45.586;13.782;2023-02-15T02:02:31;1.65;;;0.88;;
45490;SDS011;31237;45.586;13.782;2023-02-15T02:04:58;0.73;;;0.73;;
45490;SDS011;31237;45.586;13.782;2023-02-15T02:07:32;0.50;;;0.50;;
45490;SDS011;31237;45.586;13.782;2023-02-15T02:10:03;0.40;;;0.40;;
45490;SDS011;31237;45.586;13.782;2023-02-15T02:12:31;0.75;;;0.75;;
45490;SDS011;31237;45.586;13.782;2023-02-15T02:14:58;0.40;;;0.40;;
45490;SDS011;31237;45.586;13.782;2023-02-15T02:20:43;0.90;;;0.90;;
45490;SDS011;31237;45.586;13.782;2023-02-15T02:40:16;0.82;;;0.80;;
45490;SDS011;31237;45.586;13.782;2023-02-15T02:42:54;0.73;;;0.73;;
45490;SDS011;31237;45.586;13.782;2023-02-15T02:45:26;0.30;;;0.30;;
45490;SDS011;31237;45.586;13.782;2023-02-15T02:48:01;0.80;;;0.80;;
45490;SDS011;31237;45.586;13.782;2023-02-15T02:50:33;0.50;;;0.50;;
45490;SDS011;31237;45.586;13.782;2023-02-15T02:52:59;0.65;;;0.65;;
45490;SDS011;31237;45.586;13.782;2023-02-15T02:57:55;0.57;;;0.57;;
45490;SDS011;31237;45.586;13.782;2023-02-15T03:00:40;0.60;;;0.60;;
45490;SDS011;31237;45.586;13.782;2023-02-15T03:03:25;0.53;;;0.53;;
45490;SDS011;31237;45.586;13.782;2023-02-15T03:05:56;0.50;;;0.50;;
45490;SDS011;31237;45.586;13.782;2023-02-15T03:08:27;0.90;;;0.90;;
45490;SDS011;31237;45.586;13.782;2023-02-15T03:10:59;0.50;;;0.50;;
45490;SDS011;31237;45.586;13.782;2023-02-15T03:13:26;0.50;;;0.50;;
45490;SDS011;31237;45.586;13.782;2023-02-15T03:15:53;1.00;;;1.00;;
45490;SDS011;31237;45.586;13.782;2023-02-15T03:18:41;1.02;;;1.02;;
45490;SDS011;31237;45.586;13.782;2023-02-15T03:21:17;1.23;;;1.13;;
45490;SDS011;31237;45.586;13.782;2023-02-15T03:23:52;1.50;;;1.40;;
45490;SDS011;31237;45.586;13.782;2023-02-15T03:26:20;0.45;;;0.45;;
45490;SDS011;31237;45.586;13.782;2023-02-15T03:28:49;0.50;;;0.50;;
45490;SDS011;31237;45.586;13.782;2023-02-15T03:31:17;0.50;;;0.50;;
45490;SDS011;31237;45.586;13.782;2023-02-15T03:33:57;0.60;;;0.60;;
45490;SDS011;31237;45.586;13.782;2023-02-15T03:39:04;0.30;;;0.30;;
45490;SDS011;31237;45.586;13.782;2023-02-15T03:45:08;0.40;;;0.40;;
45490;SDS011;31237;45.586;13.782;2023-02-15T03:47:41;0.50;;;0.50;;
45490;SDS011;31237;45.586;13.782;2023-02-15T03:50:11;0.45;;;0.45;;
45490;SDS011;31237;45.586;13.782;2023-02-15T03:53:01;0.43;;;0.43;;
45490;SDS011;31237;45.586;13.782;2023-02-15T03:55:30;0.75;;;0.75;;
45490;SDS011;31237;45.586;13.782;2023-02-15T03:57:56;0.73;;;0.70;;
45490;SDS011;31237;45.586;13.782;2023-02-15T04:00:42;0.50;;;0.50;;
45490;SDS011;31237;45.586;13.782;2023-02-15T04:06:06;0.93;;;0.93;;
45490;SDS011;31237;45.586;13.782;2023-02-15T04:08:32;0.50;;;0.50;;
45490;SDS011;31237;45.586;13.782;2023-02-15T04:11:16;0.40;;;0.40;;
45490;SDS011;31237;45.586;13.782;2023-02-15T04:13:42;1.40;;;1.30;;
45490;SDS011;31237;45.586;13.782;2023-02-15T04:16:08;1.05;;;1.05;;
45490;SDS011;31237;45.586;13.782;2023-02-15T04:21:23;0.30;;;0.30;;
45490;SDS011;31237;45.586;13.782;2023-02-15T04:24:08;0.40;;;0.40;;
45490;SDS011;31237;45.586;13.782;2023-02-15T04:26:53;0.50;;;0.50;;
45490;SDS011;31237;45.586;13.782;2023-02-15T04:29:21;1.13;;;1.10;;
45490;SDS011;31237;45.586;13.782;2023-02-15T04:31:47;1.88;;;1.15;;
45490;SDS011;31237;45.586;13.782;2023-02-15T04:34:14;4.28;;;1.95;;
45490;SDS011;31237;45.586;13.782;2023-02-15T04:36:40;0.65;;;0.65;;
45490;SDS011;31237;45.586;13.782;2023-02-15T04:39:06;0.85;;;0.85;;
45490;SDS011;31237;45.586;13.782;2023-02-15T04:41:33;0.40;;;0.40;;
45490;SDS011;31237;45.586;13.782;2023-02-15T04:43:59;0.77;;;0.77;;
45490;SDS011;31237;45.586;13.782;2023-02-15T04:46:26;0.85;;;0.85;;
45490;SDS011;31237;45.586;13.782;2023-02-15T04:48:52;0.73;;;0.73;;
45490;SDS011;31237;45.586;13.782;2023-02-15T04:51:18;0.75;;;0.75;;
45490;SDS011;31237;45.586;13.782;2023-02-15T04:53:44;1.48;;;1.23;;
45490;SDS011;31237;45.586;13.782;2023-02-15T04:56:10;1.33;;;1.23;;
45490;SDS011;31237;45.586;13.782;2023-02-15T04:58:35;0.70;;;0.70;;
45490;SDS011;31237;45.586;13.782;2023-02-15T05:01:02;1.05;;;1.05;;
45490;SDS011;31237;45.586;13.782;2023-02-15T05:03:28;0.85;;;0.85;;
45490;SDS011;31237;45.586;13.782;2023-02-15T05:05:54;0.88;;;0.88;;
45490;SDS011;31237;45.586;13.782;2023-02-15T05:08:19;0.47;;;0.47;;
45490;SDS011;31237;45.586;13.782;2023-02-15T05:10:47;0.75;;;0.57;;
45490;SDS011;31237;45.586;13.782;2023-02-15T05:13:14;2.10;;;0.80;;
45490;SDS011;31237;45.586;13.782;2023-02-15T05:15:39;1.67;;;0.88;;
45490;SDS011;31237;45.586;13.782;2023-02-15T05:18:05;0.75;;;0.75;;
45490;SDS011;31237;45.586;13.782;2023-02-15T05:20:32;0.45;;;0.45;;
45490;SDS011;31237;45.586;13.782;2023-02-15T05:22:58;0.40;;;0.40;;
45490;SDS011;31237;45.586;13.782;2023-02-15T05:25:24;1.00;;;0.98;;
45490;SDS011;31237;45.586;13.782;2023-02-15T05:28:11;0.38;;;0.38;;
45490;SDS011;31237;45.586;13.782;2023-02-15T05:30:49;0.40;;;0.40;;
45490;SDS011;31237;45.586;13.782;2023-02-15T05:33:22;0.80;;;0.80;;
45490;SDS011;31237;45.586;13.782;2023-02-15T05:35:48;0.82;;;0.82;;
45490;SDS011;31237;45.586;13.782;2023-02-15T05:38:14;0.90;;;0.90;;
45490;SDS011;31237;45.586;13.782;2023-02-15T05:40:39;0.60;;;0.60;;
45490;SDS011;31237;45.586;13.782;2023-02-15T05:43:05;0.50;;;0.50;;
45490;SDS011;31237;45.586;13.782;2023-02-15T05:45:31;0.40;;;0.40;;
45490;SDS011;31237;45.586;13.782;2023-02-15T05:47:56;0.60;;;0.60;;
45490;SDS011;31237;45.586;13.782;2023-02-15T05:50:23;3.40;;;0.93;;
45490;SDS011;31237;45.586;13.782;2023-02-15T05:52:49;0.30;;;0.30;;
45490;SDS011;31237;45.586;13.782;2023-02-15T05:55:15;0.45;;;0.45;;
45490;SDS011;31237;45.586;13.782;2023-02-15T05:57:41;0.40;;;0.40;;
45490;SDS011;31237;45.586;13.782;2023-02-15T06:00:07;0.80;;;0.80;;
45490;SDS011;31237;45.586;13.782;2023-02-15T06:02:35;0.30;;;0.30;;
45490;SDS011;31237;45.586;13.782;2023-02-15T06:05:02;0.75;;;0.75;;
45490;SDS011;31237;45.586;13.782;2023-02-15T06:07:28;0.40;;;0.40;;
45490;SDS011;31237;45.586;13.782;2023-02-15T06:09:54;0.60;;;0.60;;
45490;SDS011;31237;45.586;13.782;2023-02-15T06:12:20;1.00;;;0.70;;
45490;SDS011;31237;45.586;13.782;2023-02-15T06:14:45;0.65;;;0.65;;
45490;SDS011;31237;45.586;13.782;2023-02-15T06:17:11;0.63;;;0.63;;
45490;SDS011;31237;45.586;13.782;2023-02-15T06:19:37;0.63;;;0.63;;
45490;SDS011;31237;45.586;13.782;2023-02-15T06:22:02;0.88;;;0.80;;
45490;SDS011;31237;45.586;13.782;2023-02-15T06:24:28;6.82;;;0.88;;
45490;SDS011;31237;45.586;13.782;2023-02-15T06:26:54;0.50;;;0.50;;
45490;SDS011;31237;45.586;13.782;2023-02-15T06:29:20;1.10;;;1.00;;
45490;SDS011;31237;45.586;13.782;2023-02-15T06:31:45;0.70;;;0.70;;
45490;SDS011;31237;45.586;13.782;2023-02-15T06:34:11;1.25;;;0.70;;
45490;SDS011;31237;45.586;13.782;2023-02-15T06:36:37;1.48;;;1.40;;
45490;SDS011;31237;45.586;13.782;2023-02-15T06:39:03;1.65;;;1.55;;
45490;SDS011;31237;45.586;13.782;2023-02-15T06:41:29;3.03;;;1.58;;
45490;SDS011;31237;45.586;13.782;2023-02-15T06:43:55;0.70;;;0.68;;
45490;SDS011;31237;45.586;13.782;2023-02-15T06:46:21;2.83;;;0.85;;
45490;SDS011;31237;45.586;13.782;2023-02-15T06:48:46;0.60;;;0.60;;
45490;SDS011;31237;45.586;13.782;2023-02-15T06:51:12;0.43;;;0.43;;
45490;SDS011;31237;45.586;13.782;2023-02-15T06:53:38;0.50;;;0.50;;
45490;SDS011;31237;45.586;13.782;2023-02-15T06:56:07;0.65;;;0.65;;
45490;SDS011;31237;45.586;13.782;2023-02-15T06:58:37;0.70;;;0.60;;
45490;SDS011;31237;45.586;13.782;2023-02-15T07:01:04;0.73;;;0.73;;
45490;SDS011;31237;45.586;13.782;2023-02-15T07:03:30;1.30;;;1.20;;
45490;SDS011;31237;45.586;13.782;2023-02-15T07:05:56;0.50;;;0.50;;
45490;SDS011;31237;45.586;13.782;2023-02-15T07:08:24;2.72;;;1.48;;
45490;SDS011;31237;45.586;13.782;2023-02-15T07:10:51;0.65;;;0.65;;
45490;SDS011;31237;45.586;13.782;2023-02-15T07:13:18;1.23;;;1.13;;
45490;SDS011;31237;45.586;13.782;2023-02-15T07:15:45;0.90;;;0.90;;
45490;SDS011;31237;45.586;13.782;2023-02-15T07:18:12;0.43;;;0.43;;
45490;SDS011;31237;45.586;13.782;2023-02-15T07:20:38;1.65;;;1.38;;
45490;SDS011;31237;45.586;13.782;2023-02-15T07:23:06;0.50;;;0.50;;
45490;SDS011;31237;45.586;13.782;2023-02-15T07:25:33;0.70;;;0.70;;
45490;SDS011;31237;45.586;13.782;2023-02-15T07:27:59;0.50;;;0.50;;
45490;SDS011;31237;45.586;13.782;2023-02-15T07:30:27;0.50;;;0.50;;
45490;SDS011;31237;45.586;13.782;2023-02-15T07:32:57;0.30;;;0.30;;
45490;SDS011;31237;45.586;13.782;2023-02-15T07:35:48;0.55;;;0.55;;
45490;SDS011;31237;45.586;13.782;2023-02-15T07:38:19;0.50;;;0.50;;
45490;SDS011;31237;45.586;13.782;2023-02-15T07:40:45;0.55;;;0.55;;
45490;SDS011;31237;45.586;13.782;2023-02-15T07:43:11;0.70;;;0.70;;
45490;SDS011;31237;45.586;13.782;2023-02-15T07:45:38;0.60;;;0.60;;
45490;SDS011;31237;45.586;13.782;2023-02-15T07:48:05;1.08;;;0.80;;
45490;SDS011;31237;45.586;13.782;2023-02-15T07:50:31;0.50;;;0.50;;
45490;SDS011;31237;45.586;13.782;2023-02-15T07:52:57;0.73;;;0.73;;
45490;SDS011;31237;45.586;13.782;2023-02-15T07:55:23;0.60;;;0.60;;
45490;SDS011;31237;45.586;13.782;2023-02-15T07:57:50;0.73;;;0.73;;
45490;SDS011;31237;45.586;13.782;2023-02-15T08:00:17;0.50;;;0.50;;
45490;SDS011;31237;45.586;13.782;2023-02-15T08:02:56;2.43;;;1.43;;
45490;SDS011;31237;45.586;13.782;2023-02-15T08:05:40;1.00;;;0.90;;
45490;SDS011;31237;45.586;13.782;2023-02-15T08:08:08;0.52;;;0.52;;
45490;SDS011;31237;45.586;13.782;2023-02-15T08:10:57;0.68;;;0.68;;
45490;SDS011;31237;45.586;13.782;2023-02-15T08:13:43;0.55;;;0.55;;
45490;SDS011;31237;45.586;13.782;2023-02-15T08:16:19;0.90;;;0.90;;
45490;SDS011;31237;45.586;13.782;2023-02-15T08:18:45;3.33;;;2.20;;
45490;SDS011;31237;45.586;13.782;2023-02-15T08:21:11;0.88;;;0.88;;
45490;SDS011;31237;45.586;13.782;2023-02-15T08:23:37;0.60;;;0.60;;
45490;SDS011;31237;45.586;13.782;2023-02-15T08:26:02;1.15;;;1.08;;
45490;SDS011;31237;45.586;13.782;2023-02-15T08:28:29;1.60;;;1.00;;
45490;SDS011;31237;45.586;13.782;2023-02-15T08:31:03;0.80;;;0.80;;
45490;SDS011;31237;45.586;13.782;2023-02-15T08:33:29;0.60;;;0.60;;
45490;SDS011;31237;45.586;13.782;2023-02-15T08:35:55;0.63;;;0.63;;
45490;SDS011;31237;45.586;13.782;2023-02-15T08:38:21;1.20;;;1.10;;
45490;SDS011;31237;45.586;13.782;2023-02-15T08:40:47;0.68;;;0.68;;
45490;SDS011;31237;45.586;13.782;2023-02-15T08:43:12;0.63;;;0.63;;
45490;SDS011;31237;45.586;13.782;2023-02-15T08:45:38;0.50;;;0.50;;
45490;SDS011;31237;45.586;13.782;2023-02-15T08:48:04;0.95;;;0.93;;
45490;SDS011;31237;45.586;13.782;2023-02-15T08:50:30;0.40;;;0.40;;
45490;SDS011;31237;45.586;13.782;2023-02-15T08:52:55;1.48;;;1.02;;
45490;SDS011;31237;45.586;13.782;2023-02-15T08:55:21;2.67;;;1.67;;
45490;SDS011;31237;45.586;13.782;2023-02-15T08:57:47;0.65;;;0.65;;
45490;SDS011;31237;45.586;13.782;2023-02-15T09:00:13;0.73;;;0.73;;
45490;SDS011;31237;45.586;13.782;2023-02-15T09:02:39;0.63;;;0.63;;
45490;SDS011;31237;45.586;13.782;2023-02-15T09:05:04;1.25;;;1.17;;
45490;SDS011;31237;45.586;13.782;2023-02-15T09:07:30;2.17;;;1.50;;
45490;SDS011;31237;45.586;13.782;2023-02-15T09:09:56;1.10;;;1.05;;
45490;SDS011;31237;45.586;13.782;2023-02-15T09:12:22;0.60;;;0.60;;
45490;SDS011;31237;45.586;13.782;2023-02-15T09:14:48;2.42;;;1.30;;
45490;SDS011;31237;45.586;13.782;2023-02-15T09:17:13;0.70;;;0.70;;
45490;SDS011;31237;45.586;13.782;2023-02-15T09:19:39;1.73;;;1.63;;
45490;SDS011;31237;45.586;13.782;2023-02-15T09:22:05;2.67;;;1.52;;
45490;SDS011;31237;45.586;13.782;2023-02-15T09:24:31;1.50;;;1.40;;
45490;SDS011;31237;45.586;13.782;2023-02-15T09:26:58;2.00;;;1.50;;
45490;SDS011;31237;45.586;13.782;2023-02-15T09:29:24;4.05;;;2.58;;
45490;SDS011;31237;45.586;13.782;2023-02-15T09:31:50;4.40;;;2.38;;
45490;SDS011;31237;45.586;13.782;2023-02-15T09:34:16;1.83;;;1.67;;
45490;SDS011;31237;45.586;13.782;2023-02-15T09:36:44;1.67;;;1.58;;
45490;SDS011;31237;45.586;13.782;2023-02-15T09:39:11;1.77;;;1.63;;
45490;SDS011;31237;45.586;13.782;2023-02-15T10:00:50;4.80;;;4.18;;
45490;SDS011;31237;45.586;13.782;2023-02-15T10:03:44;4.32;;;3.55;;
45490;SDS011;31237;45.586;13.782;2023-02-15T10:12:18;4.65;;;2.55;;
45490;SDS011;31237;45.586;13.782;2023-02-15T10:17:44;5.68;;;3.88;;
45490;SDS011;31237;45.586;13.782;2023-02-15T10:28:31;13.10;;;3.38;;
45490;SDS011;31237;45.586;13.782;2023-02-15T10:31:12;3.85;;;3.35;;
45490;SDS011;31237;45.586;13.782;2023-02-15T10:51:00;8.82;;;2.65;;
45490;SDS011;31237;45.586;13.782;2023-02-15T10:56:12;2.83;;;2.53;;
45490;SDS011;31237;45.586;13.782;2023-02-15T10:58:54;5.97;;;4.57;;
45490;SDS011;31237;45.586;13.782;2023-02-15T11:01:34;4.60;;;3.92;;
45490;SDS011;31237;45.586;13.782;2023-02-15T11:07:09;3.20;;;2.88;;
45490;SDS011;31237;45.586;13.782;2023-02-15T11:09:42;1.92;;;1.20;;
45490;SDS011;31237;45.586;13.782;2023-02-15T11:12:14;2.17;;;1.75;;
45490;SDS011;31237;45.586;13.782;2023-02-15T11:14:58;10.10;;;4.70;;
45490;SDS011;31237;45.586;13.782;2023-02-15T11:17:43;5.32;;;4.60;;
45490;SDS011;31237;45.586;13.782;2023-02-15T11:20:35;11.73;;;3.97;;
45490;SDS011;31237;45.586;13.782;2023-02-15T11:23:13;6.68;;;3.30;;
45490;SDS011;31237;45.586;13.782;2023-02-15T11:25:41;3.45;;;2.92;;
45490;SDS011;31237;45.586;13.782;2023-02-15T11:28:31;2.35;;;2.15;;
45490;SDS011;31237;45.586;13.782;2023-02-15T11:31:00;4.82;;;3.45;;
45490;SDS011;31237;45.586;13.782;2023-02-15T11:33:39;4.15;;;2.85;;
45490;SDS011;31237;45.586;13.782;2023-02-15T11:36:13;2.50;;;2.30;;
45490;SDS011;31237;45.586;13.782;2023-02-15T11:38:45;5.45;;;3.53;;
45490;SDS011;31237;45.586;13.782;2023-02-15T11:41:15;5.35;;;2.90;;
45490;SDS011;31237;45.586;13.782;2023-02-15T11:43:49;4.35;;;3.25;;
45490;SDS011;31237;45.586;13.782;2023-02-15T11:46:18;2.42;;;2.22;;
45490;SDS011;31237;45.586;13.782;2023-02-15T11:48:45;3.05;;;2.78;;
45490;SDS011;31237;45.586;13.782;2023-02-15T11:51:16;6.00;;;3.25;;
45490;SDS011;31237;45.586;13.782;2023-02-15T11:53:44;3.08;;;2.83;;
45490;SDS011;31237;45.586;13.782;2023-02-15T11:56:19;4.85;;;3.60;;
45490;SDS011;31237;45.586;13.782;2023-02-15T12:01:33;8.27;;;4.60;;
45490;SDS011;31237;45.586;13.782;2023-02-15T12:06:45;3.95;;;3.15;;
45490;SDS011;31237;45.586;13.782;2023-02-15T12:14:56;3.60;;;2.95;;
45490;SDS011;31237;45.586;13.782;2023-02-15T12:17:28;2.75;;;2.45;;
45490;SDS011;31237;45.586;13.782;2023-02-15T12:19:59;6.07;;;4.67;;
45490;SDS011;31237;45.586;13.782;2023-02-15T12:22:27;2.25;;;2.10;;
45490;SDS011;31237;45.586;13.782;2023-02-15T12:24:58;2.47;;;2.17;;
45490;SDS011;31237;45.586;13.782;2023-02-15T12:27:29;5.90;;;4.53;;
45490;SDS011;31237;45.586;13.782;2023-02-15T12:30:05;12.30;;;3.58;;
45490;SDS011;31237;45.586;13.782;2023-02-15T12:32:53;4.45;;;3.13;;
45490;SDS011;31237;45.586;13.782;2023-02-15T12:38:19;4.80;;;4.10;;
45490;SDS011;31237;45.586;13.782;2023-02-15T12:40:41;3.22;;;2.83;;
45490;SDS011;31237;45.586;13.782;2023-02-15T12:43:29;7.72;;;4.55;;
45490;SDS011;31237;45.586;13.782;2023-02-15T12:46:12;3.67;;;2.75;;
45490;SDS011;31237;45.586;13.782;2023-02-15T12:48:44;2.03;;;1.83;;
45490;SDS011;31237;45.586;13.782;2023-02-15T12:51:13;3.15;;;2.33;;
45490;SDS011;31237;45.586;13.782;2023-02-15T12:53:40;6.40;;;4.78;;
45490;SDS011;31237;45.586;13.782;2023-02-15T12:56:07;4.97;;;3.95;;
45490;SDS011;31237;45.586;13.782;2023-02-15T12:58:35;5.05;;;3.72;;
45490;SDS011;31237;45.586;13.782;2023-02-15T13:03:34;1.83;;;1.70;;
45490;SDS011;31237;45.586;13.782;2023-02-15T13:06:02;7.22;;;2.55;;
45490;SDS011;31237;45.586;13.782;2023-02-15T13:08:33;8.48;;;3.90;;
45490;SDS011;31237;45.586;13.782;2023-02-15T13:11:06;5.60;;;2.95;;
45490;SDS011;31237;45.586;13.782;2023-02-15T13:13:36;7.63;;;3.35;;
45490;SDS011;31237;45.586;13.782;2023-02-15T13:16:29;2.20;;;2.00;;
45490;SDS011;31237;45.586;13.782;2023-02-15T13:19:05;4.30;;;2.72;;
45490;SDS011;31237;45.586;13.782;2023-02-15T13:21:39;4.07;;;3.60;;
45490;SDS011;31237;45.586;13.782;2023-02-15T13:24:13;3.55;;;3.25;;
45490;SDS011;31237;45.586;13.782;2023-02-15T13:26:41;2.75;;;2.55;;
45490;SDS011;31237;45.586;13.782;2023-02-15T13:29:15;3.20;;;2.90;;
45490;SDS011;31237;45.586;13.782;2023-02-15T13:34:14;2.60;;;2.40;;
45490;SDS011;31237;45.586;13.782;2023-02-15T13:39:55;3.10;;;2.38;;
45490;SDS011;31237;45.586;13.782;2023-02-15T13:56:12;3.63;;;2.17;;
45490;SDS011;31237;45.586;13.782;2023-02-15T13:58:51;2.53;;;2.22;;
45490;SDS011;31237;45.586;13.782;2023-02-15T14:01:31;2.13;;;1.98;;
45490;SDS011;31237;45.586;13.782;2023-02-15T14:18:14;5.50;;;2.95;;
45490;SDS011;31237;45.586;13.782;2023-02-15T14:26:10;4.47;;;2.58;;
45490;SDS011;31237;45.586;13.782;2023-02-15T14:29:22;4.28;;;2.22;;
45490;SDS011;31237;45.586;13.782;2023-02-15T14:32:08;2.78;;;2.28;;
45490;SDS011;31237;45.586;13.782;2023-02-15T14:35:00;4.35;;;1.85;;
45490;SDS011;31237;45.586;13.782;2023-02-15T14:40:12;2.70;;;2.47;;
45490;SDS011;31237;45.586;13.782;2023-02-15T14:45:58;3.05;;;2.35;;
45490;SDS011;31237;45.586;13.782;2023-02-15T14:51:37;2.47;;;2.20;;
45490;SDS011;31237;45.586;13.782;2023-02-15T14:54:09;4.05;;;3.05;;
45490;SDS011;31237;45.586;13.782;2023-02-15T14:56:36;2.72;;;2.50;;
45490;SDS011;31237;45.586;13.782;2023-02-15T14:59:17;2.85;;;2.05;;
45490;SDS011;31237;45.586;13.782;2023-02-15T15:01:52;4.43;;;3.05;;
45490;SDS011;31237;45.586;13.782;2023-02-15T15:04:34;1.75;;;1.65;;
45490;SDS011;31237;45.586;13.782;2023-02-15T15:07:25;2.08;;;1.77;;
45490;SDS011;31237;45.586;13.782;2023-02-15T15:10:05;2.08;;;1.90;;
45490;SDS011;31237;45.586;13.782;2023-02-15T15:12:53;3.53;;;1.75;;
45490;SDS011;31237;45.586;13.782;2023-02-15T15:17:56;1.83;;;1.70;;
45490;SDS011;31237;45.586;13.782;2023-02-15T15:25:41;1.77;;;1.67;;
45490;SDS011;31237;45.586;13.782;2023-02-15T15:31:20;1.27;;;1.20;;
45490;SDS011;31237;45.586;13.782;2023-02-15T15:45:23;1.98;;;1.63;;
45490;SDS011;31237;45.586;13.782;2023-02-15T15:50:53;3.58;;;1.60;;
45490;SDS011;31237;45.586;13.782;2023-02-15T15:53:23;1.42;;;1.33;;
45490;SDS011;31237;45.586;13.782;2023-02-15T15:55:51;1.92;;;1.60;;
45490;SDS011;31237;45.586;13.782;2023-02-15T15:58:21;0.90;;;0.90;;
45490;SDS011;31237;45.586;13.782;2023-02-15T16:00:51;1.15;;;1.15;;
45490;SDS011;31237;45.586;13.782;2023-02-15T16:03:28;1.88;;;1.63;;
45490;SDS011;31237;45.586;13.782;2023-02-15T16:05:54;3.72;;;1.10;;
45490;SDS011;31237;45.586;13.782;2023-02-15T16:08:28;0.73;;;0.73;;
45490;SDS011;31237;45.586;13.782;2023-02-15T16:10:58;0.55;;;0.55;;
45490;SDS011;31237;45.586;13.782;2023-02-15T16:13:32;0.68;;;0.68;;
45490;SDS011;31237;45.586;13.782;2023-02-15T16:15:58;0.65;;;0.65;;
45490;SDS011;31237;45.586;13.782;2023-02-15T16:18:25;1.75;;;1.55;;
45490;SDS011;31237;45.586;13.782;2023-02-15T16:20:53;0.70;;;0.70;;
45490;SDS011;31237;45.586;13.782;2023-02-15T16:28:58;0.60;;;0.60;;
45490;SDS011;31237;45.586;13.782;2023-02-15T16:31:24;0.80;;;0.80;;
45490;SDS011;31237;45.586;13.782;2023-02-15T16:33:52;1.27;;;1.20;;
45490;SDS011;31237;45.586;13.782;2023-02-15T16:36:23;1.15;;;1.15;;
45490;SDS011;31237;45.586;13.782;2023-02-15T16:41:26;0.93;;;0.90;;
45490;SDS011;31237;45.586;13.782;2023-02-15T16:46:28;5.07;;;1.63;;
45490;SDS011;31237;45.586;13.782;2023-02-15T16:49:27;2.45;;;2.25;;
45490;SDS011;31237;45.586;13.782;2023-02-15T16:51:56;0.70;;;0.70;;
45490;SDS011;31237;45.586;13.782;2023-02-15T16:54:26;3.70;;;3.17;;
45490;SDS011;31237;45.586;13.782;2023-02-15T16:56:53;2.05;;;1.85;;
45490;SDS011;31237;45.586;13.782;2023-02-15T17:02:18;1.58;;;1.48;;
45490;SDS011;31237;45.586;13.782;2023-02-15T17:05:00;1.75;;;1.63;;
45490;SDS011;31237;45.586;13.782;2023-02-15T17:07:39;2.53;;;2.33;;
45490;SDS011;31237;45.586;13.782;2023-02-15T17:13:23;3.90;;;2.88;;
45490;SDS011;31237;45.586;13.782;2023-02-15T17:18:27;5.50;;;2.63;;
45490;SDS011;31237;45.586;13.782;2023-02-15T17:21:19;7.25;;;2.85;;
45490;SDS011;31237;45.586;13.782;2023-02-15T17:23:49;4.82;;;3.65;;
45490;SDS011;31237;45.586;13.782;2023-02-15T17:31:45;2.40;;;2.20;;
45490;SDS011;31237;45.586;13.782;2023-02-15T17:34:40;4.25;;;2.80;;
45490;SDS011;31237;45.586;13.782;2023-02-15T17:37:11;4.15;;;3.53;;
45490;SDS011;31237;45.586;13.782;2023-02-15T17:39:38;7.55;;;4.45;;
45490;SDS011;31237;45.586;13.782;2023-02-15T17:42:05;4.65;;;3.95;;
45490;SDS011;31237;45.586;13.782;2023-02-15T17:44:31;3.22;;;2.92;;
45490;SDS011;31237;45.586;13.782;2023-02-15T17:46:57;2.42;;;2.20;;
45490;SDS011;31237;45.586;13.782;2023-02-15T17:49:23;5.25;;;3.42;;
45490;SDS011;31237;45.586;13.782;2023-02-15T17:51:58;5.43;;;2.95;;
45490;SDS011;31237;45.586;13.782;2023-02-15T17:54:27;2.95;;;2.60;;
45490;SDS011;31237;45.586;13.782;2023-02-15T17:57:12;2.53;;;2.33;;
45490;SDS011;31237;45.586;13.782;2023-02-15T17:59:39;5.13;;;3.75;;
45490;SDS011;31237;45.586;13.782;2023-02-15T18:02:24;2.97;;;2.08;;
45490;SDS011;31237;45.586;13.782;2023-02-15T18:05:12;2.60;;;2.42;;
45490;SDS011;31237;45.586;13.782;2023-02-15T18:07:57;1.42;;;1.33;;
45490;SDS011;31237;45.586;13.782;2023-02-15T18:10:41;1.42;;;1.33;;
45490;SDS011;31237;45.586;13.782;2023-02-15T18:13:25;2.28;;;2.10;;
45490;SDS011;31237;45.586;13.782;2023-02-15T18:15:51;1.60;;;1.30;;
45490;SDS011;31237;45.586;13.782;2023-02-15T18:18:17;3.25;;;2.50;;
45490;SDS011;31237;45.586;13.782;2023-02-15T18:20:43;1.23;;;1.23;;
45490;SDS011;31237;45.586;13.782;2023-02-15T18:23:11;4.53;;;2.72;;
45490;SDS011;31237;45.586;13.782;2023-02-15T18:25:40;2.13;;;1.33;;
45490;SDS011;31237;45.586;13.782;2023-02-15T18:28:07;1.20;;;1.10;;